createdAt,value
2023-03-23T00:00:28.252Z,12.9
2023-03-23T00:15:37.510Z,12.6
2023-03-23T00:30:47.995Z,12.4
2023-03-23T00:45:58.062Z,12.2
2023-03-23T01:01:07.303Z,12.2
2023-03-23T01:16:16.989Z,12.1
2023-03-23T01:31:27.098Z,11.9
2023-03-23T01:46:36.809Z,11.8
2023-03-23T02:01:46.400Z,11.8
2023-03-23T02:16:55.898Z,11.7
2023-03-23T02:32:05.562Z,11.8
2023-03-23T02:47:15.417Z,11.8
2023-03-23T03:02:25.362Z,11.8
2023-03-23T03:17:35.531Z,11.8
2023-03-23T03:32:45.546Z,11.7
2023-03-23T03:47:55.099Z,11.8
2023-03-23T04:03:06.109Z,11.9
2023-03-23T04:18:16.903Z,11.9
2023-03-23T04:33:26.808Z,12
2023-03-23T04:49:10.846Z,12
2023-03-23T05:04:21.132Z,12
2023-03-23T05:19:31.160Z,12
2023-03-23T05:34:40.915Z,12.1
2023-03-23T05:49:50.660Z,12.1
2023-03-23T06:05:00.621Z,12.2
2023-03-23T06:20:10.605Z,12.3
2023-03-23T06:35:20.119Z,12.4
2023-03-23T06:50:29.945Z,12.6
2023-03-23T07:05:39.747Z,12.7
2023-03-23T07:20:50.899Z,12.9
2023-03-23T07:36:00.879Z,13.1
2023-03-23T07:51:10.737Z,13.2
2023-03-23T08:06:20.745Z,13.5
2023-03-23T08:21:30.666Z,13.8
2023-03-23T08:36:39.841Z,13.9
2023-03-23T08:51:49.089Z,14
2023-03-23T09:06:59.017Z,13.9
2023-03-23T09:22:09.007Z,14
2023-03-23T09:37:19.202Z,14
2023-03-23T09:52:30.235Z,14
2023-03-23T10:07:39.785Z,13.9
2023-03-23T10:22:49.532Z,14
2023-03-23T10:37:59.015Z,14.2
2023-03-23T10:53:09.188Z,14.5
2023-03-23T11:08:19.166Z,15
2023-03-23T11:23:29.551Z,14.9
2023-03-23T11:38:39.094Z,14.7
2023-03-23T11:53:48.490Z,14.2
2023-03-23T12:08:57.621Z,13.3
2023-03-23T12:24:06.515Z,12.5
2023-03-23T12:39:16.638Z,12.3
2023-03-23T12:56:36.043Z,13
2023-03-23T13:11:46.824Z,12.6
2023-03-23T13:26:56.407Z,12.6
2023-03-23T13:42:06.475Z,12.5
2023-03-23T13:57:15.898Z,12.5
2023-03-23T14:12:25.707Z,12.7
2023-03-23T14:27:35.975Z,13.6
2023-03-23T14:42:46.037Z,14
2023-03-23T14:57:55.706Z,13.8
2023-03-23T15:13:05.465Z,13.4
2023-03-23T15:28:15.720Z,13.5
2023-03-23T15:43:25.453Z,13.6
2023-03-23T15:58:39.434Z,16.5
2023-03-23T16:13:51.567Z,21.9
2023-03-23T16:29:02.859Z,17.1
2023-03-23T16:45:11.408Z,18.9
2023-03-23T17:00:20.818Z,16.3
2023-03-23T17:15:30.128Z,14.2
2023-03-23T17:30:39.657Z,13.5
2023-03-23T17:45:49.109Z,13.2
2023-03-23T18:00:59.337Z,13
2023-03-23T18:16:09.816Z,12.9
2023-03-23T18:31:19.098Z,12.7
2023-03-23T18:46:29.243Z,12.6
2023-03-23T19:01:39.547Z,12.6
2023-03-23T19:16:49.771Z,12.6
2023-03-23T19:31:59.654Z,12.6
2023-03-23T19:47:09.573Z,12.6
2023-03-23T20:02:20.117Z,12.6
2023-03-23T20:17:30.747Z,12.5
2023-03-23T20:32:41.074Z,12.4
2023-03-23T20:47:50.483Z,12.4
2023-03-23T21:03:00.516Z,12.3
2023-03-23T21:18:10.552Z,12.2
2023-03-23T21:33:20.660Z,12.1
2023-03-23T21:48:31.926Z,12
2023-03-23T22:03:41.452Z,12
2023-03-23T22:18:51.034Z,12.1
2023-03-23T22:34:00.843Z,12.1
2023-03-23T22:49:10.581Z,12.1
2023-03-23T23:04:20.139Z,12.2
2023-03-23T23:19:31.630Z,12.5
2023-03-23T23:34:41.676Z,12.6
2023-03-23T23:49:51.722Z,12.6
